createdAt,value
2018-06-08T00:00:10.491Z,35.00
2018-06-08T00:00:44.062Z,35.10
2018-06-08T00:01:17.782Z,35.48
2018-06-08T00:01:51.298Z,34.27
2018-06-08T00:02:24.903Z,34.13
2018-06-08T00:02:58.506Z,35.98
2018-06-08T00:03:32.116Z,34.90
2018-06-08T00:04:05.703Z,35.20
2018-06-08T00:04:39.306Z,34.53
2018-06-08T00:05:12.927Z,35.10
2018-06-08T00:05:46.446Z,35.92
2018-06-08T00:06:19.966Z,35.65
2018-06-08T00:06:53.472Z,34.80
2018-06-08T00:07:27.671Z,34.63
2018-06-08T00:08:01.230Z,35.38
2018-06-08T00:08:34.768Z,33.83
2018-06-08T00:09:09.224Z,33.98
2018-06-08T00:09:43.484Z,34.27
2018-06-08T00:10:17.141Z,33.88
2018-06-08T00:10:50.739Z,33.75
2018-06-08T00:11:24.388Z,33.45
2018-06-08T00:11:57.923Z,35.28
2018-06-08T00:12:32.119Z,35.13
2018-06-08T00:13:05.694Z,35.60
2018-06-08T00:13:39.234Z,36.85
2018-06-08T00:14:12.766Z,36.10
2018-06-08T00:14:46.979Z,35.20
2018-06-08T00:15:20.752Z,35.20
2018-06-08T00:15:54.255Z,36.93
2018-06-08T00:16:28.186Z,35.48
2018-06-08T00:17:02.105Z,36.28
2018-06-08T00:17:37.162Z,35.50
2018-06-08T00:18:10.776Z,34.27
2018-06-08T00:18:46.880Z,37.25
2018-06-08T00:19:21.055Z,34.92
2018-06-08T00:19:54.578Z,35.17
2018-06-08T00:20:29.095Z,33.60
2018-06-08T00:21:05.612Z,34.67
2018-06-08T00:21:39.259Z,34.73
2018-06-08T00:22:17.589Z,35.80
2018-06-08T00:22:51.727Z,35.35
2018-06-08T00:23:25.863Z,37.75
2018-06-08T00:24:07.952Z,35.75
2018-06-08T00:24:41.554Z,35.90
2018-06-08T00:25:15.090Z,34.20
2018-06-08T00:25:49.218Z,34.05
2018-06-08T00:26:22.848Z,33.25
2018-06-08T00:26:56.421Z,35.70
2018-06-08T00:27:30.596Z,35.13
2018-06-08T00:28:04.160Z,33.73
2018-06-08T00:28:37.724Z,35.77
2018-06-08T00:29:11.346Z,34.98
2018-06-08T00:29:44.888Z,34.03
2018-06-08T00:30:18.476Z,33.78
2018-06-08T00:30:52.062Z,35.65
2018-06-08T00:31:25.587Z,34.98
2018-06-08T00:31:59.146Z,35.20
2018-06-08T00:32:33.936Z,35.13
2018-06-08T00:33:08.219Z,33.45
2018-06-08T00:33:41.794Z,33.90
2018-06-08T00:34:15.321Z,35.45
2018-06-08T00:34:48.498Z,35.65
2018-06-08T00:35:22.090Z,35.17
2018-06-08T00:35:56.383Z,36.38
2018-06-08T00:36:30.880Z,37.03
2018-06-08T00:37:04.726Z,36.03
2018-06-08T00:37:38.343Z,36.40
2018-06-08T00:38:11.900Z,37.83
2018-06-08T00:38:45.476Z,38.13
2018-06-08T00:39:19.711Z,38.10
2018-06-08T00:39:53.963Z,37.42
2018-06-08T00:40:28.700Z,36.84
2018-06-08T00:41:02.299Z,39.00
2018-06-08T00:41:36.724Z,38.38
2018-06-08T00:42:11.590Z,38.35
2018-06-08T00:42:45.193Z,38.07
2018-06-08T00:43:18.701Z,37.78
2018-06-08T00:43:52.340Z,38.08
2018-06-08T00:44:25.973Z,38.15
2018-06-08T00:44:59.554Z,38.53
2018-06-08T00:45:33.110Z,38.05
2018-06-08T00:46:07.240Z,38.15
2018-06-08T00:46:40.801Z,37.73
2018-06-08T00:47:14.344Z,37.33
2018-06-08T00:47:48.517Z,36.55
2018-06-08T00:48:22.042Z,36.65
2018-06-08T00:48:55.608Z,36.58
2018-06-08T00:49:29.177Z,37.75
2018-06-08T00:50:03.512Z,36.42
2018-06-08T00:50:37.061Z,36.27
2018-06-08T00:51:10.644Z,34.78
2018-06-08T00:51:43.865Z,35.20
2018-06-08T00:52:17.446Z,34.83
2018-06-08T00:52:51.608Z,34.70
2018-06-08T00:53:25.682Z,37.58
2018-06-08T00:54:00.238Z,38.05
2018-06-08T00:54:34.187Z,36.37
2018-06-08T00:55:07.722Z,36.03
2018-06-08T00:55:41.309Z,36.75
2018-06-08T00:56:25.869Z,36.70
2018-06-08T00:57:07.052Z,37.15
2018-06-08T00:57:40.858Z,37.40
2018-06-08T00:58:15.801Z,38.05
2018-06-08T00:58:49.416Z,37.73
2018-06-08T00:59:23.444Z,36.85
2018-06-08T00:59:57.133Z,37.83
2018-06-08T01:00:31.212Z,37.13
2018-06-08T01:01:04.747Z,37.98
2018-06-08T01:01:38.383Z,39.23
2018-06-08T01:02:11.928Z,38.75
2018-06-08T01:02:45.470Z,38.80
2018-06-08T01:03:19.048Z,37.88
2018-06-08T01:03:52.543Z,37.95
2018-06-08T01:04:26.138Z,37.20
2018-06-08T01:04:59.713Z,37.83
2018-06-08T01:05:33.338Z,37.17
2018-06-08T01:06:06.932Z,38.53
2018-06-08T01:06:46.121Z,39.60
2018-06-08T01:07:19.902Z,39.67
2018-06-08T01:07:57.188Z,38.17
2018-06-08T01:08:30.707Z,37.75
2018-06-08T01:09:08.498Z,38.00
2018-06-08T01:09:42.512Z,38.48
2018-06-08T01:10:16.083Z,37.73
2018-06-08T01:10:49.600Z,37.80
2018-06-08T01:11:23.337Z,38.75
2018-06-08T01:11:56.980Z,41.15
2018-06-08T01:12:30.529Z,39.40
2018-06-08T01:13:04.050Z,40.20
2018-06-08T01:13:37.563Z,41.13
2018-06-08T01:14:11.108Z,38.48
2018-06-08T01:14:44.313Z,39.55
2018-06-08T01:15:18.114Z,39.03
2018-06-08T01:15:52.342Z,37.65
2018-06-08T01:16:25.910Z,38.48
2018-06-08T01:17:00.296Z,40.38
2018-06-08T01:17:33.974Z,40.15
2018-06-08T01:18:08.297Z,39.80
2018-06-08T01:18:41.839Z,39.67
2018-06-08T01:19:15.427Z,39.73
2018-06-08T01:19:49.736Z,39.73
2018-06-08T01:20:23.248Z,40.80
2018-06-08T01:20:57.578Z,40.88
2018-06-08T01:21:31.190Z,41.42
2018-06-08T01:22:04.733Z,40.43
2018-06-08T01:22:38.335Z,40.83
2018-06-08T01:23:11.860Z,41.23
2018-06-08T01:23:45.408Z,41.18
2018-06-08T01:24:19.841Z,41.70
2018-06-08T01:24:53.672Z,41.05
2018-06-08T01:25:28.851Z,39.73
2018-06-08T01:26:02.412Z,41.73
2018-06-08T01:26:36.799Z,42.77
2018-06-08T01:27:10.609Z,41.70
2018-06-08T01:27:44.187Z,41.37
2018-06-08T01:28:17.736Z,40.23
2018-06-08T01:28:52.502Z,41.58
2018-06-08T01:29:26.180Z,41.53
2018-06-08T01:30:00.910Z,42.27
2018-06-08T01:30:35.656Z,41.37
2018-06-08T01:31:09.232Z,43.15
2018-06-08T01:31:42.849Z,42.83
2018-06-08T01:32:16.422Z,42.10
2018-06-08T01:32:50.607Z,42.10
2018-06-08T01:33:24.182Z,41.90
2018-06-08T01:33:57.764Z,41.92
2018-06-08T01:34:32.295Z,42.83
2018-06-08T01:35:06.087Z,40.60
2018-06-08T01:35:40.239Z,42.83
2018-06-08T01:36:13.784Z,41.23
2018-06-08T01:36:48.375Z,42.60
2018-06-08T01:37:21.929Z,42.65
2018-06-08T01:37:55.503Z,42.62
2018-06-08T01:38:29.090Z,42.27
2018-06-08T01:39:02.710Z,43.73
2018-06-08T01:39:36.231Z,44.23
2018-06-08T01:40:09.756Z,42.88
2018-06-08T01:40:43.328Z,43.50
2018-06-08T01:41:16.924Z,43.33
2018-06-08T01:41:50.511Z,43.55
2018-06-08T01:42:24.036Z,43.52
2018-06-08T01:42:57.835Z,42.30
2018-06-08T01:43:31.366Z,45.55
2018-06-08T01:44:08.256Z,43.38
2018-06-08T01:44:44.186Z,43.23
2018-06-08T01:45:18.328Z,44.55
2018-06-08T01:45:51.980Z,43.98
2018-06-08T01:46:25.528Z,44.25
2018-06-08T01:46:59.577Z,43.68
2018-06-08T01:47:33.116Z,43.90
2018-06-08T01:48:11.442Z,43.40
2018-06-08T01:48:46.827Z,42.50
2018-06-08T01:49:20.386Z,41.45
2018-06-08T01:49:53.961Z,43.52
2018-06-08T01:50:28.102Z,43.17
2018-06-08T01:51:02.221Z,41.68
2018-06-08T01:51:35.827Z,43.55
2018-06-08T01:52:09.772Z,41.68
2018-06-08T01:52:43.288Z,42.73
2018-06-08T01:53:16.862Z,42.40
2018-06-08T01:53:50.440Z,43.60
2018-06-08T01:54:24.000Z,42.43
2018-06-08T01:54:57.815Z,41.45
2018-06-08T01:55:31.594Z,41.92
2018-06-08T01:56:05.116Z,43.17
2018-06-08T01:56:38.736Z,43.40
2018-06-08T01:57:12.266Z,42.62
2018-06-08T01:57:45.829Z,42.48
2018-06-08T01:58:20.084Z,42.55
2018-06-08T01:58:53.627Z,42.95
2018-06-08T01:59:27.167Z,43.65
2018-06-08T02:00:00.712Z,43.10
2018-06-08T02:00:34.336Z,43.92
2018-06-08T02:01:07.915Z,44.30
2018-06-08T02:01:41.475Z,46.45
2018-06-08T02:02:14.966Z,44.55
2018-06-08T02:02:48.511Z,44.45
2018-06-08T02:03:23.431Z,43.48
2018-06-08T02:03:56.979Z,44.15
2018-06-08T02:04:30.566Z,44.20
2018-06-08T02:05:04.171Z,44.03
2018-06-08T02:05:37.718Z,42.48
2018-06-08T02:06:11.987Z,43.90
2018-06-08T02:06:45.560Z,43.80
2018-06-08T02:07:19.098Z,43.65
2018-06-08T02:07:52.635Z,43.05
2018-06-08T02:08:28.626Z,43.10
2018-06-08T02:09:02.250Z,42.13
2018-06-08T02:09:35.885Z,44.15
2018-06-08T02:10:09.911Z,42.23
2018-06-08T02:10:43.512Z,42.38
2018-06-08T02:11:17.067Z,43.58
2018-06-08T02:11:50.664Z,42.15
2018-06-08T02:12:24.764Z,43.00
2018-06-08T02:12:58.241Z,42.93
2018-06-08T02:13:31.798Z,43.73
2018-06-08T02:14:05.387Z,42.45
2018-06-08T02:14:38.598Z,42.83
2018-06-08T02:15:12.204Z,41.42
2018-06-08T02:15:45.763Z,40.85
2018-06-08T02:16:19.318Z,43.45
2018-06-08T02:16:52.835Z,41.20
2018-06-08T02:17:26.420Z,41.37
2018-06-08T02:18:02.252Z,40.88
2018-06-08T02:18:35.529Z,43.77
2018-06-08T02:19:09.148Z,43.38
2018-06-08T02:19:42.702Z,41.37
2018-06-08T02:20:15.909Z,42.85
2018-06-08T02:20:50.183Z,40.33
2018-06-08T02:21:23.702Z,41.42
2018-06-08T02:21:57.289Z,41.92
2018-06-08T02:22:30.892Z,41.60
2018-06-08T02:23:04.933Z,42.55
2018-06-08T02:23:38.514Z,42.60
2018-06-08T02:24:12.387Z,41.80
2018-06-08T02:24:45.949Z,43.43
2018-06-08T02:25:19.781Z,39.73
2018-06-08T02:25:53.287Z,41.83
2018-06-08T02:26:27.661Z,42.27
2018-06-08T02:27:03.419Z,42.53
2018-06-08T02:27:39.572Z,42.00
2018-06-08T02:28:13.991Z,44.73
2018-06-08T02:28:50.888Z,44.60
2018-06-08T02:29:24.420Z,43.35
2018-06-08T02:29:57.907Z,42.40
2018-06-08T02:30:31.496Z,43.17
2018-06-08T02:31:05.073Z,44.23
2018-06-08T02:31:38.661Z,45.15
2018-06-08T02:32:12.254Z,44.38
2018-06-08T02:32:45.795Z,44.90
2018-06-08T02:33:19.542Z,44.93
2018-06-08T02:33:53.643Z,45.33
2018-06-08T02:34:27.282Z,43.98
2018-06-08T02:35:00.934Z,43.68
2018-06-08T02:35:34.492Z,45.52
2018-06-08T02:36:08.043Z,44.73
2018-06-08T02:36:41.640Z,44.97
2018-06-08T02:37:15.195Z,45.20
2018-06-08T02:37:49.383Z,45.75
2018-06-08T02:38:22.935Z,44.73
2018-06-08T02:38:56.539Z,45.75
2018-06-08T02:39:30.047Z,44.83
2018-06-08T02:40:04.236Z,44.90
2018-06-08T02:40:37.811Z,43.60
2018-06-08T02:41:11.368Z,45.25
2018-06-08T02:41:44.940Z,43.98
2018-06-08T02:42:19.093Z,44.77
2018-06-08T02:42:52.642Z,45.03
2018-06-08T02:43:26.181Z,44.45
2018-06-08T02:43:59.439Z,45.80
2018-06-08T02:44:32.977Z,47.60
2018-06-08T02:45:06.770Z,47.60
2018-06-08T02:45:40.872Z,48.83
2018-06-08T02:46:14.533Z,49.18
2018-06-08T02:46:48.891Z,49.42
2018-06-08T02:47:22.495Z,49.73
2018-06-08T02:47:56.034Z,50.10
2018-06-08T02:48:30.208Z,49.67
2018-06-08T02:49:03.799Z,52.95
2018-06-08T02:49:37.443Z,50.50
2018-06-08T02:50:11.622Z,49.83
2018-06-08T02:50:45.786Z,49.37
2018-06-08T02:51:19.439Z,48.70
2018-06-08T02:51:53.095Z,49.83
2018-06-08T02:52:27.481Z,49.00
2018-06-08T02:53:00.663Z,49.83
2018-06-08T02:53:34.230Z,50.08
2018-06-08T02:54:08.906Z,51.05
2018-06-08T02:54:43.198Z,53.17
2018-06-08T02:55:16.748Z,53.95
2018-06-08T02:55:50.312Z,52.38
2018-06-08T02:56:23.890Z,54.80
2018-06-08T02:56:58.121Z,52.45
2018-06-08T02:57:31.345Z,53.78
2018-06-08T02:58:04.903Z,53.17
2018-06-08T02:58:38.450Z,54.97
2018-06-08T02:59:12.305Z,55.73
2018-06-08T02:59:46.001Z,54.95
2018-06-08T03:00:20.179Z,55.40
2018-06-08T03:00:53.731Z,55.23
2018-06-08T03:01:28.138Z,54.18
2018-06-08T03:02:01.719Z,54.18
2018-06-08T03:02:35.315Z,55.33
2018-06-08T03:03:09.507Z,54.75
2018-06-08T03:03:43.051Z,55.50
2018-06-08T03:04:17.568Z,54.67
2018-06-08T03:04:51.819Z,54.67
2018-06-08T03:05:26.184Z,54.03
2018-06-08T03:05:59.701Z,54.48
2018-06-08T03:06:33.254Z,55.52
2018-06-08T03:07:07.356Z,53.05
2018-06-08T03:07:41.876Z,55.35
2018-06-08T03:08:15.448Z,53.80
2018-06-08T03:08:49.744Z,53.15
2018-06-08T03:09:24.436Z,54.42
2018-06-08T03:09:58.604Z,52.53
2018-06-08T03:10:32.103Z,52.43
2018-06-08T03:11:05.680Z,54.08
2018-06-08T03:11:39.314Z,54.83
2018-06-08T03:12:12.894Z,51.35
2018-06-08T03:12:46.424Z,52.55
2018-06-08T03:13:19.966Z,50.40
2018-06-08T03:13:53.468Z,50.98
2018-06-08T03:14:27.098Z,51.80
2018-06-08T03:15:00.619Z,52.62
2018-06-08T03:15:34.112Z,49.98
2018-06-08T03:16:07.607Z,50.95
2018-06-08T03:16:41.151Z,50.57
2018-06-08T03:17:14.743Z,50.58
2018-06-08T03:17:48.309Z,51.70
2018-06-08T03:18:21.846Z,50.15
2018-06-08T03:18:55.348Z,51.02
2018-06-08T03:19:28.931Z,49.63
2018-06-08T03:20:02.581Z,51.48
2018-06-08T03:20:36.835Z,49.53
2018-06-08T03:21:10.408Z,49.30
2018-06-08T03:21:43.955Z,48.40
2018-06-08T03:22:17.507Z,48.15
2018-06-08T03:22:51.128Z,47.83
2018-06-08T03:23:24.728Z,47.83
2018-06-08T03:23:58.228Z,47.33
2018-06-08T03:24:32.556Z,45.92
2018-06-08T03:25:06.276Z,46.55
2018-06-08T03:25:39.863Z,45.30
2018-06-08T03:26:13.421Z,45.90
2018-06-08T03:26:46.962Z,46.57
2018-06-08T03:27:20.513Z,46.05
2018-06-08T03:27:54.040Z,44.88
2018-06-08T03:28:29.199Z,44.56
2018-06-08T03:29:02.690Z,44.20
2018-06-08T03:29:36.231Z,42.85
2018-06-08T03:30:09.792Z,43.20
2018-06-08T03:30:43.429Z,43.73
2018-06-08T03:31:16.966Z,44.27
2018-06-08T03:31:50.571Z,43.05
2018-06-08T03:32:24.166Z,44.18
2018-06-08T03:32:57.687Z,43.83
2018-06-08T03:33:31.785Z,44.98
2018-06-08T03:34:05.906Z,44.50
2018-06-08T03:34:39.462Z,44.77
2018-06-08T03:35:13.037Z,42.27
2018-06-08T03:35:47.281Z,41.98
2018-06-08T03:36:20.871Z,41.48
2018-06-08T03:36:54.374Z,41.63
2018-06-08T03:37:27.863Z,40.25
2018-06-08T03:38:02.090Z,38.85
2018-06-08T03:38:35.649Z,39.98
2018-06-08T03:39:09.200Z,38.17
2018-06-08T03:39:42.771Z,38.15
2018-06-08T03:40:16.329Z,39.48
2018-06-08T03:40:50.425Z,39.80
2018-06-08T03:41:23.972Z,39.45
2018-06-08T03:41:58.275Z,37.58
2018-06-08T03:42:31.894Z,34.63
2018-06-08T03:43:05.608Z,35.15
2018-06-08T03:43:39.190Z,33.85
2018-06-08T03:44:12.728Z,35.58
2018-06-08T03:44:46.310Z,35.53
2018-06-08T03:45:19.867Z,35.95
2018-06-08T03:45:53.390Z,34.53
2018-06-08T03:46:27.510Z,33.80
2018-06-08T03:47:01.622Z,33.60
2018-06-08T03:47:35.156Z,34.18
2018-06-08T03:48:08.914Z,33.35
2018-06-08T03:48:42.467Z,31.70
2018-06-08T03:49:16.739Z,32.45
2018-06-08T03:49:50.256Z,32.98
2018-06-08T03:50:23.819Z,32.70
2018-06-08T03:50:57.365Z,32.08
2018-06-08T03:51:30.943Z,31.87
2018-06-08T03:52:05.065Z,33.13
2018-06-08T03:52:38.630Z,34.17
2018-06-08T03:53:12.938Z,33.00
2018-06-08T03:53:46.508Z,34.20
2018-06-08T03:54:20.088Z,31.42
2018-06-08T03:54:53.665Z,33.33
2018-06-08T03:55:27.225Z,33.30
2018-06-08T03:56:02.319Z,32.17
2018-06-08T03:56:36.426Z,32.07
2018-06-08T03:57:10.036Z,32.45
2018-06-08T03:57:44.179Z,32.58
2018-06-08T03:58:17.778Z,31.97
2018-06-08T03:58:51.291Z,31.45
2018-06-08T03:59:24.840Z,31.90
2018-06-08T03:59:58.416Z,33.18
2018-06-08T04:00:31.985Z,31.27
2018-06-08T04:01:06.197Z,31.40
2018-06-08T04:01:39.735Z,31.30
2018-06-08T04:02:13.297Z,32.50
2018-06-08T04:02:46.870Z,31.77
2018-06-08T04:03:20.460Z,31.68
2018-06-08T04:03:55.979Z,31.82
2018-06-08T04:04:29.571Z,31.48
2018-06-08T04:05:03.106Z,31.70
2018-06-08T04:05:36.650Z,29.85
2018-06-08T04:06:10.182Z,28.92
2018-06-08T04:06:43.697Z,29.40
2018-06-08T04:07:17.293Z,28.45
2018-06-08T04:07:50.843Z,29.15
2018-06-08T04:08:24.467Z,25.68
2018-06-08T04:08:57.976Z,25.15
2018-06-08T04:09:31.578Z,26.20
2018-06-08T04:10:05.361Z,26.62
2018-06-08T04:10:39.516Z,25.27
2018-06-08T04:11:13.578Z,23.85
2018-06-08T04:11:47.120Z,22.77
2018-06-08T04:12:20.651Z,24.85
2018-06-08T04:12:54.203Z,24.00
2018-06-08T04:13:27.779Z,23.27
2018-06-08T04:14:01.970Z,21.70
2018-06-08T04:14:36.305Z,23.00
2018-06-08T04:15:09.819Z,22.55
2018-06-08T04:15:43.398Z,23.12
2018-06-08T04:16:16.975Z,23.20
2018-06-08T04:16:51.172Z,22.17
2018-06-08T04:17:25.707Z,21.50
2018-06-08T04:17:59.283Z,21.62
2018-06-08T04:18:32.835Z,23.25
2018-06-08T04:19:06.690Z,23.55
2018-06-08T04:19:41.004Z,22.82
2018-06-08T04:20:14.259Z,22.95
2018-06-08T04:20:47.836Z,23.05
2018-06-08T04:21:21.794Z,22.62
2018-06-08T04:21:55.289Z,22.00
2018-06-08T04:22:28.842Z,22.15
2018-06-08T04:23:02.426Z,23.73
2018-06-08T04:23:35.959Z,24.10
2018-06-08T04:24:09.528Z,22.52
2018-06-08T04:24:43.116Z,21.87
2018-06-08T04:25:16.674Z,22.20
2018-06-08T04:25:50.224Z,22.73
2018-06-08T04:26:23.756Z,21.33
2018-06-08T04:26:57.347Z,21.12
2018-06-08T04:27:30.927Z,20.75
2018-06-08T04:28:04.528Z,20.70
2018-06-08T04:28:38.565Z,21.47
2018-06-08T04:29:12.151Z,21.30
2018-06-08T04:29:46.311Z,20.48
2018-06-08T04:30:19.887Z,19.07
2018-06-08T04:30:53.467Z,19.35
2018-06-08T04:31:26.706Z,18.17
2018-06-08T04:32:00.326Z,19.07
2018-06-08T04:32:33.925Z,18.97
2018-06-08T04:33:07.244Z,18.40
2018-06-08T04:33:40.753Z,18.15
2018-06-08T04:34:14.371Z,17.00
2018-06-08T04:34:47.970Z,17.45
2018-06-08T04:35:21.522Z,17.52
2018-06-08T04:35:55.103Z,17.37
2018-06-08T04:36:28.332Z,17.42
2018-06-08T04:37:01.560Z,17.05
2018-06-08T04:37:35.165Z,17.52
2018-06-08T04:38:08.706Z,17.75
2018-06-08T04:38:42.293Z,17.73
2018-06-08T04:39:15.839Z,17.48
2018-06-08T04:39:49.456Z,17.17
2018-06-08T04:40:23.024Z,17.80
2018-06-08T04:40:56.603Z,17.02
2018-06-08T04:41:30.160Z,17.25
2018-06-08T04:42:03.784Z,16.10
2018-06-08T04:42:37.364Z,16.07
2018-06-08T04:43:10.916Z,16.10
2018-06-08T04:43:45.199Z,16.77
2018-06-08T04:44:18.758Z,16.55
2018-06-08T04:44:52.328Z,16.65
2018-06-08T04:45:25.924Z,17.42
2018-06-08T04:45:59.464Z,16.75
2018-06-08T04:46:33.062Z,16.37
2018-06-08T04:47:06.984Z,16.52
2018-06-08T04:47:40.605Z,16.85
2018-06-08T04:48:14.163Z,16.80
2018-06-08T04:48:48.479Z,16.65
2018-06-08T04:49:21.997Z,16.62
2018-06-08T04:49:55.531Z,17.07
2018-06-08T04:50:29.099Z,16.80
2018-06-08T04:51:02.633Z,16.55
2018-06-08T04:51:36.208Z,16.95
2018-06-08T04:52:09.776Z,16.42
2018-06-08T04:52:44.311Z,16.73
2018-06-08T04:53:17.527Z,17.10
2018-06-08T04:53:51.064Z,16.90
2018-06-08T04:54:25.180Z,17.55
2018-06-08T04:54:58.735Z,16.23
2018-06-08T04:55:33.017Z,17.15
2018-06-08T04:56:06.603Z,16.62
2018-06-08T04:56:40.149Z,16.73
2018-06-08T04:57:13.718Z,16.85
2018-06-08T04:57:47.277Z,16.95
2018-06-08T04:58:21.594Z,17.90
2018-06-08T04:58:55.171Z,17.20
2018-06-08T04:59:29.328Z,17.00
2018-06-08T05:00:03.590Z,17.05
2018-06-08T05:00:37.103Z,17.57
2018-06-08T05:01:10.340Z,17.42
2018-06-08T05:01:43.859Z,18.32
2018-06-08T05:02:17.370Z,17.82
2018-06-08T05:02:50.952Z,17.40
2018-06-08T05:03:24.514Z,18.95
2018-06-08T05:03:58.091Z,17.95
2018-06-08T05:04:31.628Z,18.92
2018-06-08T05:05:06.048Z,17.95
2018-06-08T05:05:39.574Z,18.50
2018-06-08T05:06:13.115Z,18.30
2018-06-08T05:06:47.145Z,17.70
2018-06-08T05:07:21.392Z,18.27
2018-06-08T05:07:55.435Z,18.00
2018-06-08T05:08:28.978Z,17.52
2018-06-08T05:09:02.639Z,17.15
2018-06-08T05:09:36.155Z,18.07
2018-06-08T05:10:09.716Z,17.62
2018-06-08T05:10:43.267Z,18.07
2018-06-08T05:11:17.446Z,17.27
2018-06-08T05:11:51.019Z,17.73
2018-06-08T05:12:24.557Z,17.75
2018-06-08T05:12:58.104Z,18.57
2018-06-08T05:13:31.641Z,17.70
2018-06-08T05:14:06.070Z,17.65
2018-06-08T05:14:39.596Z,17.73
2018-06-08T05:15:13.843Z,18.42
2018-06-08T05:15:47.347Z,18.62
2018-06-08T05:16:20.541Z,18.95
2018-06-08T05:16:54.098Z,18.05
2018-06-08T05:17:27.629Z,18.32
2018-06-08T05:18:01.192Z,17.67
2018-06-08T05:18:34.781Z,18.30
2018-06-08T05:19:09.032Z,17.55
2018-06-08T05:19:43.139Z,18.75
2018-06-08T05:20:16.708Z,18.80
2018-06-08T05:20:50.464Z,19.70
2018-06-08T05:21:23.992Z,18.77
2018-06-08T05:21:57.580Z,18.92
2018-06-08T05:22:31.343Z,19.10
2018-06-08T05:23:05.518Z,18.87
2018-06-08T05:23:39.090Z,18.23
2018-06-08T05:24:12.699Z,18.92
2018-06-08T05:24:46.219Z,19.13
2018-06-08T05:25:19.909Z,19.07
2018-06-08T05:25:54.039Z,19.32
2018-06-08T05:26:27.744Z,19.10
2018-06-08T05:27:01.993Z,18.48
2018-06-08T05:27:35.559Z,19.62
2018-06-08T05:28:09.123Z,18.92
2018-06-08T05:28:42.703Z,19.87
2018-06-08T05:29:16.284Z,19.30
2018-06-08T05:29:49.836Z,19.77
2018-06-08T05:30:25.468Z,19.32
2018-06-08T05:30:58.974Z,19.25
2018-06-08T05:31:32.479Z,19.25
2018-06-08T05:32:06.051Z,17.80
2018-06-08T05:32:39.900Z,18.87
2018-06-08T05:33:13.461Z,18.52
2018-06-08T05:33:47.007Z,19.75
2018-06-08T05:34:21.179Z,19.07
2018-06-08T05:34:54.734Z,18.60
2018-06-08T05:35:28.349Z,19.25
2018-06-08T05:36:01.913Z,18.45
2018-06-08T05:36:35.496Z,19.02
2018-06-08T05:37:09.152Z,18.73
2018-06-08T05:37:42.713Z,18.55
2018-06-08T05:38:16.314Z,18.27
2018-06-08T05:38:49.872Z,18.65
2018-06-08T05:39:23.445Z,18.77
2018-06-08T05:39:57.052Z,17.82
2018-06-08T05:40:30.591Z,18.80
2018-06-08T05:41:04.158Z,18.82
2018-06-08T05:41:37.955Z,19.15
2018-06-08T05:42:11.536Z,19.32
2018-06-08T05:42:45.144Z,19.37
2018-06-08T05:43:18.748Z,19.12
2018-06-08T05:43:52.360Z,18.20
2018-06-08T05:44:25.970Z,18.02
2018-06-08T05:44:59.567Z,18.48
2018-06-08T05:45:33.115Z,19.15
2018-06-08T05:46:06.675Z,18.45
2018-06-08T05:46:40.231Z,17.17
2018-06-08T05:47:13.795Z,17.70
2018-06-08T05:47:47.349Z,18.05
2018-06-08T05:48:21.003Z,17.98
2018-06-08T05:48:54.448Z,17.35
2018-06-08T05:49:27.608Z,18.02
2018-06-08T05:50:01.176Z,18.20
2018-06-08T05:50:34.796Z,18.20
2018-06-08T05:51:08.347Z,17.50
2018-06-08T05:51:41.864Z,17.57
2018-06-08T05:52:15.371Z,17.60
2018-06-08T05:52:48.945Z,18.15
2018-06-08T05:53:22.500Z,18.95
2018-06-08T05:53:55.995Z,19.15
2018-06-08T05:54:29.511Z,17.75
2018-06-08T05:55:03.117Z,18.37
2018-06-08T05:55:36.674Z,17.90
2018-06-08T05:56:10.252Z,18.45
2018-06-08T05:56:43.832Z,18.00
2018-06-08T05:57:18.059Z,18.70
2018-06-08T05:57:51.622Z,17.62
2018-06-08T05:58:25.139Z,18.05
2018-06-08T05:58:58.709Z,18.27
2018-06-08T05:59:32.258Z,17.55
2018-06-08T06:00:05.920Z,18.12
2018-06-08T06:00:39.511Z,18.20
2018-06-08T06:01:13.055Z,17.52
2018-06-08T06:01:46.210Z,18.02
2018-06-08T06:02:19.750Z,17.40
2018-06-08T06:02:53.326Z,17.30
2018-06-08T06:03:26.868Z,17.48
2018-06-08T06:04:00.402Z,17.77
2018-06-08T06:04:34.720Z,17.33
2018-06-08T06:05:08.860Z,17.62
2018-06-08T06:05:42.394Z,17.80
2018-06-08T06:06:15.963Z,17.42
2018-06-08T06:06:49.481Z,18.10
2018-06-08T06:07:23.157Z,17.48
2018-06-08T06:07:56.715Z,17.57
2018-06-08T06:08:30.245Z,17.15
2018-06-08T06:09:06.193Z,18.05
2018-06-08T06:09:39.751Z,17.57
2018-06-08T06:10:13.304Z,17.62
2018-06-08T06:10:46.826Z,17.55
2018-06-08T06:11:20.403Z,17.10
2018-06-08T06:11:53.595Z,18.12
2018-06-08T06:12:27.128Z,17.23
2018-06-08T06:13:00.690Z,17.90
2018-06-08T06:13:34.293Z,16.30
2018-06-08T06:14:07.869Z,16.73
2018-06-08T06:14:41.374Z,18.10
2018-06-08T06:15:14.894Z,18.12
2018-06-08T06:15:48.441Z,18.82
2018-06-08T06:16:22.098Z,17.23
2018-06-08T06:16:55.609Z,17.23
2018-06-08T06:17:29.181Z,16.80
2018-06-08T06:18:03.236Z,16.55
2018-06-08T06:18:36.842Z,17.13
2018-06-08T06:19:10.395Z,17.07
2018-06-08T06:19:43.906Z,16.52
2018-06-08T06:20:17.091Z,17.07
2018-06-08T06:20:50.996Z,17.40
2018-06-08T06:21:24.558Z,18.12
2018-06-08T06:21:58.924Z,18.02
2018-06-08T06:22:34.370Z,17.54
2018-06-08T06:23:08.435Z,17.45
2018-06-08T06:23:42.811Z,17.87
2018-06-08T06:24:16.061Z,17.45
2018-06-08T06:24:49.669Z,17.57
2018-06-08T06:25:23.247Z,17.17
2018-06-08T06:25:56.773Z,17.70
2018-06-08T06:26:30.360Z,18.10
2018-06-08T06:27:03.965Z,17.75
2018-06-08T06:27:38.096Z,18.42
2018-06-08T06:28:11.654Z,16.95
2018-06-08T06:28:45.224Z,17.57
2018-06-08T06:29:18.809Z,17.75
2018-06-08T06:29:52.427Z,17.95
2018-06-08T06:30:26.023Z,17.62
2018-06-08T06:30:59.576Z,17.30
2018-06-08T06:31:33.147Z,17.25
2018-06-08T06:32:06.793Z,17.35
2018-06-08T06:32:40.360Z,17.07
2018-06-08T06:33:14.297Z,17.50
2018-06-08T06:33:47.864Z,17.00
2018-06-08T06:34:22.224Z,17.12
2018-06-08T06:34:56.513Z,16.85
2018-06-08T06:35:30.088Z,17.27
2018-06-08T06:36:03.735Z,17.85
2018-06-08T06:36:37.870Z,17.27
2018-06-08T06:37:11.469Z,17.07
2018-06-08T06:37:45.510Z,16.95
2018-06-08T06:38:19.052Z,17.07
2018-06-08T06:38:52.575Z,17.37
2018-06-08T06:39:26.112Z,18.60
2018-06-08T06:39:59.649Z,17.95
2018-06-08T06:40:33.923Z,18.32
2018-06-08T06:41:07.508Z,17.48
2018-06-08T06:41:41.036Z,17.10
2018-06-08T06:42:14.940Z,17.42
2018-06-08T06:42:48.468Z,18.40
2018-06-08T06:43:22.755Z,18.02
2018-06-08T06:43:59.412Z,17.02
2018-06-08T06:44:32.958Z,18.25
2018-06-08T06:45:06.758Z,18.77
2018-06-08T06:45:40.369Z,16.73
2018-06-08T06:46:13.899Z,16.67
2018-06-08T06:46:47.455Z,17.10
2018-06-08T06:47:21.016Z,16.75
2018-06-08T06:47:54.595Z,17.77
2018-06-08T06:48:28.584Z,17.16
2018-06-08T06:49:02.100Z,17.00
2018-06-08T06:49:35.626Z,18.02
2018-06-08T06:50:08.786Z,18.02
2018-06-08T06:50:42.911Z,17.97
2018-06-08T06:51:16.123Z,16.93
2018-06-08T06:51:49.727Z,17.67
2018-06-08T06:52:23.456Z,16.57
2018-06-08T06:52:58.344Z,16.77
2018-06-08T06:53:31.861Z,16.90
2018-06-08T06:54:06.207Z,16.90
2018-06-08T06:54:40.526Z,17.20
2018-06-08T06:55:14.072Z,15.95
2018-06-08T06:55:47.691Z,15.98
2018-06-08T06:56:21.985Z,16.48
2018-06-08T06:56:55.583Z,17.15
2018-06-08T06:57:29.146Z,17.00
2018-06-08T06:58:02.688Z,17.12
2018-06-08T06:58:36.293Z,17.00
2018-06-08T06:59:09.843Z,16.52
2018-06-08T06:59:43.575Z,15.90
2018-06-08T07:00:16.740Z,16.20
2018-06-08T07:00:50.285Z,16.05
2018-06-08T07:01:23.834Z,17.00
2018-06-08T07:01:57.348Z,17.40
2018-06-08T07:02:30.878Z,16.90
2018-06-08T07:03:04.450Z,16.75
2018-06-08T07:03:37.997Z,16.73
2018-06-08T07:04:12.483Z,16.57
2018-06-08T07:04:45.654Z,15.90
2018-06-08T07:05:19.182Z,15.78
2018-06-08T07:05:52.671Z,16.65
2018-06-08T07:06:26.167Z,16.35
2018-06-08T07:06:59.670Z,17.15
2018-06-08T07:07:33.198Z,17.17
2018-06-08T07:08:07.431Z,16.40
2018-06-08T07:08:40.986Z,16.63
2018-06-08T07:09:14.540Z,17.32
2018-06-08T07:09:48.189Z,17.05
2018-06-08T07:10:21.706Z,16.50
2018-06-08T07:10:55.300Z,17.23
2018-06-08T07:11:28.804Z,16.55
2018-06-08T07:12:02.355Z,17.02
2018-06-08T07:12:35.915Z,18.10
2018-06-08T07:13:09.520Z,16.50
2018-06-08T07:13:43.672Z,17.05
2018-06-08T07:14:17.223Z,16.90
2018-06-08T07:14:50.806Z,17.07
2018-06-08T07:15:24.573Z,17.00